Time;durP1;ratioP1;P1;durP2;ratioP2;P2;SDS_P1;SDS_P2;PMS_P1;PMS_P2;Temp;Humidity;BMP_temperature;BMP_pressure;BME280_temperature;BME280_humidity;BME280_pressure;Samples;Min_cycle;Max_cycle;Signal;HPM_P1;HPM_P2
2023/05/12 00:00:06;;;;;;;7.28;6.03;;;11.50;99.90;;;;;;5002874;28;20046;-69
2023/05/12 00:02:41;;;;;;;10.35;6.60;;;11.50;99.90;;;;;;4998062;28;20061;-69
2023/05/12 00:05:09;;;;;;;8.00;6.32;;;11.50;99.90;;;;;;4983333;28;20054;-69
2023/05/12 00:07:36;;;;;;;7.75;5.88;;;11.50;99.90;;;;;;4990833;28;20053;-69
2023/05/12 00:10:04;;;;;;;7.95;5.95;;;11.50;99.90;;;;;;4989641;28;20050;-69
2023/05/12 00:12:31;;;;;;;7.35;5.75;;;11.50;99.90;;;;;;4989500;28;20498;-69
2023/05/12 00:15:00;;;;;;;7.10;5.95;;;11.50;99.90;;;;;;4985063;28;20038;-69
2023/05/12 00:17:27;;;;;;;9.95;6.03;;;11.50;99.90;;;;;;5004170;28;20058;-68
2023/05/12 00:19:55;;;;;;;8.85;6.28;;;11.50;99.90;;;;;;4998213;28;20092;-70
2023/05/12 00:22:23;;;;;;;7.30;5.95;;;11.40;99.90;;;;;;5007219;28;20096;-69
2023/05/12 00:24:51;;;;;;;7.68;6.05;;;11.40;99.90;;;;;;4990076;28;20331;-70
2023/05/12 00:27:18;;;;;;;8.30;5.97;;;11.50;99.90;;;;;;4995613;28;20057;-70
2023/05/12 00:29:45;;;;;;;9.73;5.88;;;11.40;99.90;;;;;;4958943;28;20414;-70
2023/05/12 00:32:13;;;;;;;11.15;6.53;;;11.40;99.90;;;;;;4956471;28;20054;-69
2023/05/12 00:34:41;;;;;;;8.30;6.55;;;11.40;99.90;;;;;;4990180;28;20516;-70
2023/05/12 00:37:09;;;;;;;7.55;6.25;;;11.40;99.90;;;;;;4992917;28;20054;-70
2023/05/12 00:39:37;;;;;;;8.63;6.50;;;11.40;99.90;;;;;;4991215;28;20038;-70
2023/05/12 00:42:04;;;;;;;9.55;6.70;;;11.40;99.90;;;;;;4990725;28;20502;-70
2023/05/12 00:44:32;;;;;;;8.93;6.70;;;11.40;99.90;;;;;;4973524;28;20060;-69
2023/05/12 00:46:59;;;;;;;10.10;6.68;;;11.40;99.90;;;;;;4990921;28;20472;-72
2023/05/12 00:49:27;;;;;;;8.88;6.53;;;11.40;99.90;;;;;;4975588;28;20141;-69
2023/05/12 00:51:55;;;;;;;9.75;6.28;;;11.40;99.90;;;;;;4984984;28;20066;-69
2023/05/12 00:54:22;;;;;;;9.30;6.40;;;11.40;99.90;;;;;;4984290;28;20046;-70
2023/05/12 00:56:50;;;;;;;8.25;5.72;;;11.40;99.90;;;;;;4983680;28;20038;-70
2023/05/12 00:59:19;;;;;;;9.70;7.10;;;11.40;99.90;;;;;;4989981;28;20045;-71
2023/05/12 01:01:49;;;;;;;9.35;6.10;;;11.40;99.90;;;;;;4966520;28;20093;-70
2023/05/12 01:04:16;;;;;;;12.35;6.35;;;11.40;99.90;;;;;;4975446;28;20085;-70
2023/05/12 01:07:01;;;;;;;9.20;6.20;;;11.40;99.90;;;;;;4989862;28;20197;-70
2023/05/12 01:09:28;;;;;;;11.27;8.13;;;11.30;99.90;;;;;;4991168;28;20565;-70
2023/05/12 01:11:57;;;;;;;10.23;7.28;;;11.40;99.90;;;;;;4969831;28;20094;-70
2023/05/12 01:14:24;;;;;;;9.57;6.68;;;11.40;99.90;;;;;;4980942;28;20470;-69
2023/05/12 01:16:54;;;;;;;8.73;6.72;;;11.30;99.90;;;;;;4990851;28;20448;-69
2023/05/12 01:19:37;;;;;;;8.73;6.47;;;11.30;99.90;;;;;;4974318;28;20490;-69
2023/05/12 01:22:07;;;;;;;9.32;6.90;;;11.30;99.90;;;;;;4995845;28;20061;-69
2023/05/12 01:24:44;;;;;;;9.98;7.07;;;11.30;99.90;;;;;;5003006;28;20062;-68
2023/05/12 01:27:13;;;;;;;8.73;6.90;;;11.30;99.90;;;;;;4955691;28;20129;-69
2023/05/12 01:29:42;;;;;;;12.25;7.15;;;11.30;99.90;;;;;;4990584;28;20414;-69
2023/05/12 01:32:10;;;;;;;12.43;7.32;;;11.30;99.90;;;;;;4991911;28;20477;-69
2023/05/12 01:34:37;;;;;;;8.73;7.03;;;11.30;99.90;;;;;;4990107;28;20126;-69
2023/05/12 01:37:04;;;;;;;9.82;6.57;;;11.30;99.90;;;;;;5002394;28;20057;-69
2023/05/12 01:39:32;;;;;;;8.70;6.97;;;11.30;99.90;;;;;;4990379;28;20085;-69
2023/05/12 01:41:59;;;;;;;9.57;6.95;;;11.20;99.90;;;;;;4991451;28;20038;-70
2023/05/12 01:44:27;;;;;;;8.73;6.95;;;11.30;99.90;;;;;;4990879;28;20471;-69
2023/05/12 01:46:55;;;;;;;9.45;6.93;;;11.30;99.90;;;;;;4997115;28;20521;-70
2023/05/12 01:49:23;;;;;;;9.13;6.90;;;11.30;99.90;;;;;;4991179;28;20042;-70
2023/05/12 01:51:50;;;;;;;11.80;7.85;;;11.30;99.90;;;;;;4997299;28;20498;-70
2023/05/12 01:54:25;;;;;;;10.93;7.32;;;11.30;99.90;;;;;;4979737;28;20057;-70
2023/05/12 01:56:52;;;;;;;9.70;7.05;;;11.30;99.90;;;;;;4992303;28;20065;-69
2023/05/12 01:59:20;;;;;;;10.52;7.32;;;11.30;99.90;;;;;;4954768;28;20042;-69
2023/05/12 02:01:47;;;;;;;9.88;8.00;;;11.30;99.90;;;;;;4990260;28;20133;-69
2023/05/12 02:04:21;;;;;;;8.77;7.32;;;11.30;99.90;;;;;;4989303;28;20136;-70
2023/05/12 02:06:49;;;;;;;12.90;8.10;;;11.30;99.90;;;;;;4970873;28;20095;-69
2023/05/12 02:09:16;;;;;;;10.95;8.48;;;11.30;99.90;;;;;;4991667;28;20074;-70
2023/05/12 02:11:43;;;;;;;11.73;8.65;;;11.30;99.90;;;;;;4995806;28;20371;-69
2023/05/12 02:14:11;;;;;;;10.85;8.30;;;11.30;99.90;;;;;;4985446;28;20188;-70
2023/05/12 02:16:38;;;;;;;12.80;8.38;;;11.30;99.90;;;;;;4973090;28;20395;-69
2023/05/12 02:19:06;;;;;;;11.65;8.60;;;11.30;99.90;;;;;;4948940;28;20133;-69
2023/05/12 02:21:34;;;;;;;14.20;8.80;;;11.30;99.90;;;;;;4993203;28;20151;-69
2023/05/12 02:24:02;;;;;;;14.52;9.45;;;11.30;99.90;;;;;;4961869;28;20053;-69
2023/05/12 02:26:30;;;;;;;12.98;9.30;;;11.30;99.90;;;;;;5007121;28;20069;-69
2023/05/12 02:28:58;;;;;;;13.40;9.75;;;11.30;99.90;;;;;;4990087;28;20038;-69
2023/05/12 02:31:26;;;;;;;16.88;9.52;;;11.40;99.90;;;;;;4997519;28;20046;-69
2023/05/12 02:33:54;;;;;;;13.18;8.68;;;11.30;99.90;;;;;;4982110;28;20050;-69
2023/05/12 02:36:22;;;;;;;15.98;9.15;;;11.30;99.90;;;;;;4979783;28;20046;-69
2023/05/12 02:38:49;;;;;;;13.43;9.18;;;11.30;99.90;;;;;;4994638;28;20052;-69
2023/05/12 02:41:16;;;;;;;12.88;9.02;;;11.40;99.90;;;;;;4993339;28;20054;-69
2023/05/12 02:43:44;;;;;;;13.32;9.00;;;11.30;99.90;;;;;;4999781;28;20121;-69
2023/05/12 02:46:12;;;;;;;12.80;9.23;;;11.40;99.90;;;;;;4973803;28;20837;-69
2023/05/12 02:48:39;;;;;;;11.77;8.38;;;11.40;99.90;;;;;;4997035;28;20042;-70
2023/05/12 02:51:08;;;;;;;11.98;8.95;;;11.40;99.90;;;;;;4989889;28;20062;-70
2023/05/12 02:53:35;;;;;;;11.75;8.95;;;11.40;99.90;;;;;;4989326;28;20414;-70
2023/05/12 02:56:03;;;;;;;12.70;9.00;;;11.40;99.90;;;;;;4989481;28;20064;-70
2023/05/12 02:58:30;;;;;;;15.40;9.80;;;11.40;99.90;;;;;;4967483;28;20057;-70
2023/05/12 03:00:59;;;;;;;15.57;10.10;;;11.40;99.90;;;;;;4973665;28;20470;-70
2023/05/12 03:03:38;;;;;;;14.55;10.10;;;11.40;99.90;;;;;;4993038;28;20057;-69
2023/05/12 03:06:08;;;;;;;17.20;9.50;;;11.30;99.90;;;;;;4991759;28;20154;-70
2023/05/12 03:08:36;;;;;;;13.55;8.90;;;11.40;99.90;;;;;;4987264;28;20493;-69
2023/05/12 03:11:03;;;;;;;13.55;8.90;;;11.40;99.90;;;;;;4972843;28;20046;-69
2023/05/12 03:13:32;;;;;;;10.73;8.90;;;11.30;99.90;;;;;;4955990;28;20474;-70
2023/05/12 03:16:00;;;;;;;13.10;8.73;;;11.30;99.90;;;;;;4972205;28;20154;-69
2023/05/12 03:18:28;;;;;;;17.92;9.48;;;11.40;99.90;;;;;;4956992;28;20069;-70
2023/05/12 03:20:56;;;;;;;12.05;8.43;;;11.40;99.90;;;;;;4987283;28;20199;-70
2023/05/12 03:23:24;;;;;;;14.95;9.38;;;11.40;99.90;;;;;;4991716;28;20049;-69
2023/05/12 03:25:51;;;;;;;13.25;9.25;;;11.40;99.90;;;;;;4972303;28;20042;-71
2023/05/12 03:28:19;;;;;;;14.93;8.85;;;11.40;99.90;;;;;;4988682;28;20060;-69
2023/05/12 03:30:46;;;;;;;15.50;9.85;;;11.40;99.90;;;;;;4988763;28;20042;-70
2023/05/12 03:33:14;;;;;;;17.65;9.50;;;11.30;99.90;;;;;;4988664;28;20074;-70
2023/05/12 03:35:42;;;;;;;13.45;8.57;;;11.30;99.90;;;;;;4986402;28;20046;-70
2023/05/12 03:38:10;;;;;;;16.50;9.02;;;11.30;99.90;;;;;;4990759;28;20077;-69
2023/05/12 03:40:37;;;;;;;13.27;8.95;;;11.30;99.90;;;;;;4983136;28;20080;-70
2023/05/12 03:43:05;;;;;;;12.60;8.85;;;11.30;99.90;;;;;;4969540;28;20050;-69
2023/05/12 03:45:32;;;;;;;9.75;8.07;;;11.30;99.90;;;;;;4986511;28;20137;-70
2023/05/12 03:48:00;;;;;;;12.57;8.90;;;11.30;99.90;;;;;;4988925;28;20061;-70
2023/05/12 03:50:28;;;;;;;12.15;8.45;;;11.30;99.90;;;;;;4970804;28;20406;-70
2023/05/12 03:52:55;;;;;;;11.32;8.30;;;11.40;99.90;;;;;;4987494;28;20046;-69
2023/05/12 03:55:23;;;;;;;15.48;8.73;;;11.30;99.90;;;;;;4989210;28;20049;-69
2023/05/12 03:57:50;;;;;;;12.27;8.15;;;11.30;99.90;;;;;;4959459;28;20057;-70
2023/05/12 04:00:18;;;;;;;13.40;8.48;;;11.40;99.90;;;;;;4986425;28;20053;-70
2023/05/12 04:02:46;;;;;;;12.23;8.18;;;11.40;99.90;;;;;;4991894;28;20296;-70
2023/05/12 04:05:13;;;;;;;12.82;8.15;;;11.40;99.90;;;;;;4992801;28;20038;-69
2023/05/12 04:07:41;;;;;;;11.48;8.85;;;11.40;99.90;;;;;;4984380;28;20414;-70
2023/05/12 04:10:08;;;;;;;13.30;8.45;;;11.40;99.90;;;;;;4984809;28;20117;-70
2023/05/12 04:12:35;;;;;;;9.02;7.43;;;11.40;99.90;;;;;;4988763;28;20043;-71
2023/05/12 04:15:04;;;;;;;9.50;7.45;;;11.50;99.90;;;;;;4989478;28;20465;-70
2023/05/12 04:17:32;;;;;;;12.18;8.13;;;11.40;99.90;;;;;;5004841;28;20048;-71
2023/05/12 04:19:59;;;;;;;11.23;8.98;;;11.40;99.90;;;;;;4997051;28;20065;-70
2023/05/12 04:22:27;;;;;;;11.20;8.52;;;11.50;99.90;;;;;;4992879;28;20054;-70
2023/05/12 04:24:54;;;;;;;11.45;9.07;;;11.50;99.90;;;;;;4987033;28;20428;-71
2023/05/12 04:27:22;;;;;;;12.88;8.70;;;11.50;99.90;;;;;;4982378;28;20137;-71
2023/05/12 04:29:50;;;;;;;14.32;8.73;;;11.50;99.90;;;;;;4972530;28;20045;-71
2023/05/12 04:32:17;;;;;;;10.13;8.32;;;11.50;99.90;;;;;;4998801;28;20038;-70
2023/05/12 04:34:46;;;;;;;12.35;9.63;;;11.60;99.90;;;;;;4979666;28;20133;-70
2023/05/12 04:37:15;;;;;;;12.20;8.15;;;11.60;99.90;;;;;;4978681;28;20077;-69
2023/05/12 04:39:42;;;;;;;10.80;8.02;;;11.60;99.90;;;;;;4998751;28;20432;-70
2023/05/12 04:42:10;;;;;;;13.35;8.77;;;11.60;99.90;;;;;;4988812;28;20057;-69
2023/05/12 04:44:38;;;;;;;13.20;9.40;;;11.60;99.90;;;;;;4965030;28;20038;-70
2023/05/12 04:47:06;;;;;;;17.90;11.60;;;11.70;99.90;;;;;;4985007;28;20136;-71
2023/05/12 04:49:33;;;;;;;12.60;8.68;;;11.70;99.90;;;;;;4988494;28;20045;-71
2023/05/12 04:52:01;;;;;;;13.77;8.70;;;11.70;99.90;;;;;;4958600;28;20060;-71
2023/05/12 04:54:28;;;;;;;11.27;8.73;;;11.80;99.90;;;;;;4971888;28;20157;-68
2023/05/12 04:56:55;;;;;;;13.75;8.57;;;11.80;99.90;;;;;;4989066;28;20069;-70
2023/05/12 04:59:23;;;;;;;11.68;8.50;;;11.80;99.90;;;;;;4993122;28;20544;-71
2023/05/12 05:01:52;;;;;;;10.73;7.80;;;11.80;99.90;;;;;;4977107;28;20068;-70
2023/05/12 05:04:20;;;;;;;12.93;9.32;;;11.80;99.90;;;;;;5001592;28;20046;-71
2023/05/12 05:06:47;;;;;;;11.52;8.05;;;11.90;99.90;;;;;;4979936;28;20046;-70
2023/05/12 05:09:15;;;;;;;13.23;8.35;;;11.90;99.90;;;;;;4988801;28;20406;-71
2023/05/12 05:11:43;;;;;;;9.40;7.35;;;12.00;99.90;;;;;;4989792;28;20046;-70
2023/05/12 05:14:11;;;;;;;12.30;7.97;;;12.00;99.90;;;;;;4997493;28;20100;-70
2023/05/12 05:16:38;;;;;;;11.77;8.10;;;12.10;99.90;;;;;;5003001;28;20042;-70
2023/05/12 05:19:06;;;;;;;9.88;7.50;;;12.10;99.90;;;;;;4994748;28;20046;-72
2023/05/12 05:21:50;;;;;;;10.13;8.02;;;12.20;99.90;;;;;;4985046;28;20038;-71
2023/05/12 05:24:17;;;;;;;12.80;7.70;;;12.30;99.90;;;;;;4998377;28;20101;-69
2023/05/12 05:26:45;;;;;;;14.25;8.57;;;12.30;99.90;;;;;;4988908;28;20046;-72
2023/05/12 05:29:12;;;;;;;12.02;7.53;;;12.40;99.90;;;;;;4978764;28;20538;-71
2023/05/12 05:31:40;;;;;;;12.23;9.50;;;12.50;99.90;;;;;;4988783;28;20466;-69
2023/05/12 05:34:07;;;;;;;12.18;7.88;;;12.50;99.90;;;;;;4955184;28;20039;-69
2023/05/12 05:36:35;;;;;;;9.77;7.20;;;12.60;99.90;;;;;;4968302;28;20043;-70
2023/05/12 05:39:02;;;;;;;12.50;8.25;;;12.60;99.90;;;;;;4984887;28;20101;-70
2023/05/12 05:41:30;;;;;;;11.23;7.97;;;12.70;99.90;;;;;;4983964;28;20051;-71
2023/05/12 05:44:02;;;;;;;11.40;9.02;;;12.90;99.90;;;;;;4985278;28;20050;-71
2023/05/12 05:46:29;;;;;;;11.32;7.80;;;13.00;99.90;;;;;;4973108;28;20483;-71
2023/05/12 05:48:57;;;;;;;12.13;8.13;;;13.10;99.90;;;;;;5000213;28;20030;-71
2023/05/12 05:51:25;;;;;;;13.00;8.20;;;13.10;99.90;;;;;;4993033;28;20035;-69
2023/05/12 05:53:52;;;;;;;11.00;7.82;;;13.10;99.90;;;;;;4978649;28;20125;-71
2023/05/12 05:56:21;;;;;;;11.32;8.15;;;13.10;99.90;;;;;;4962405;28;20136;-70
2023/05/12 05:58:50;;;;;;;10.38;7.13;;;13.10;99.90;;;;;;4984913;28;20046;-70
2023/05/12 06:01:17;;;;;;;11.32;7.03;;;13.10;99.90;;;;;;4998993;28;20399;-69
2023/05/12 06:03:45;;;;;;;11.25;6.97;;;13.20;99.90;;;;;;4988897;28;20049;-69
2023/05/12 06:06:12;;;;;;;9.63;7.32;;;13.20;99.90;;;;;;4978310;28;20154;-71
2023/05/12 06:08:39;;;;;;;10.15;7.50;;;13.20;99.90;;;;;;4995793;28;20566;-69
2023/05/12 06:11:07;;;;;;;18.92;9.48;;;13.20;99.90;;;;;;4987774;28;20042;-69
2023/05/12 06:13:35;;;;;;;9.90;7.88;;;13.20;99.90;;;;;;4980807;28;20049;-70
2023/05/12 06:16:02;;;;;;;9.77;7.03;;;13.30;99.90;;;;;;4969388;28;20073;-69
2023/05/12 06:18:32;;;;;;;9.55;6.57;;;13.30;99.90;;;;;;4971247;28;20547;-69
2023/05/12 06:21:00;;;;;;;10.00;6.53;;;13.40;99.90;;;;;;4997477;28;20065;-70
2023/05/12 06:23:29;;;;;;;8.65;6.68;;;13.50;99.90;;;;;;4978750;28;20133;-70
2023/05/12 06:25:56;;;;;;;12.77;7.20;;;13.60;99.90;;;;;;5000610;28;20050;-70
2023/05/12 06:28:26;;;;;;;10.85;7.03;;;13.60;99.90;;;;;;4970502;28;20062;-71
2023/05/12 06:30:53;;;;;;;13.60;9.48;;;13.60;99.90;;;;;;4990409;28;20121;-70
2023/05/12 06:33:21;;;;;;;10.73;7.97;;;13.50;99.90;;;;;;4997166;28;20042;-70
2023/05/12 06:35:49;;;;;;;11.15;7.93;;;13.50;99.90;;;;;;4992550;28;20121;-71
2023/05/12 06:38:16;;;;;;;9.00;7.35;;;13.40;99.90;;;;;;4994131;28;20046;-71
2023/05/12 06:40:44;;;;;;;9.48;7.20;;;13.40;99.90;;;;;;4990608;28;20050;-68
2023/05/12 06:43:11;;;;;;;8.65;7.25;;;13.40;99.90;;;;;;4993453;28;20084;-69
2023/05/12 06:45:43;;;;;;;12.05;7.15;;;13.50;99.90;;;;;;4957323;28;20054;-70
2023/05/12 06:48:11;;;;;;;9.40;6.70;;;13.50;99.90;;;;;;4979684;28;20049;-69
2023/05/12 06:50:38;;;;;;;13.15;6.90;;;13.60;99.90;;;;;;4990436;28;20410;-70
2023/05/12 06:53:06;;;;;;;8.38;6.70;;;13.80;99.90;;;;;;4985047;28;20039;-71
2023/05/12 06:55:34;;;;;;;25.52;17.10;;;13.80;99.90;;;;;;4987657;28;20042;-71
2023/05/12 06:58:01;;;;;;;13.68;8.88;;;13.90;99.90;;;;;;4988123;28;20060;-69
2023/05/12 07:00:29;;;;;;;11.90;6.93;;;13.90;99.90;;;;;;4984610;28;20043;-69
2023/05/12 07:02:58;;;;;;;9.27;7.25;;;13.90;99.90;;;;;;4981269;28;20096;-68
2023/05/12 07:05:25;;;;;;;15.68;9.60;;;14.10;99.90;;;;;;5000359;28;20048;-69
2023/05/12 07:07:53;;;;;;;14.02;6.78;;;14.20;99.90;;;;;;4990782;28;20113;-69
2023/05/12 07:10:20;;;;;;;8.48;6.53;;;14.40;99.90;;;;;;4989721;28;20050;-69
2023/05/12 07:12:47;;;;;;;12.38;6.07;;;14.40;99.90;;;;;;4987021;28;20522;-69
2023/05/12 07:15:15;;;;;;;11.65;7.00;;;14.40;99.90;;;;;;4986988;28;20078;-68
2023/05/12 07:17:42;;;;;;;8.93;6.05;;;14.40;99.90;;;;;;4985962;28;20097;-71
2023/05/12 07:20:10;;;;;;;8.15;5.70;;;14.40;99.90;;;;;;4986060;28;20153;-70
2023/05/12 07:22:37;;;;;;;8.35;5.75;;;14.40;99.90;;;;;;4989816;28;20038;-71
2023/05/12 07:25:06;;;;;;;9.15;5.80;;;14.60;99.90;;;;;;4983175;28;20152;-70
2023/05/12 07:27:34;;;;;;;8.98;5.30;;;14.60;99.90;;;;;;4984325;28;20109;-71
2023/05/12 07:30:01;;;;;;;8.18;6.05;;;14.70;99.90;;;;;;4982578;28;20082;-70
2023/05/12 07:32:28;;;;;;;11.93;5.90;;;14.90;99.90;;;;;;4991101;28;20560;-70
2023/05/12 07:34:56;;;;;;;7.82;5.18;;;15.00;99.90;;;;;;4994142;28;20030;-70
2023/05/12 07:37:24;;;;;;;6.15;4.50;;;15.20;99.90;;;;;;4992949;28;20145;-71
2023/05/12 07:39:51;;;;;;;7.28;5.45;;;15.10;99.90;;;;;;4961860;28;20050;-70
2023/05/12 07:42:21;;;;;;;5.07;3.88;;;15.10;99.90;;;;;;4998423;28;20041;-69
2023/05/12 07:44:48;;;;;;;6.80;4.70;;;15.00;99.90;;;;;;4988375;28;20076;-70
2023/05/12 07:47:16;;;;;;;7.40;4.60;;;15.10;99.90;;;;;;4999207;28;20130;-70
2023/05/12 07:49:43;;;;;;;6.75;5.03;;;15.10;99.90;;;;;;4994737;28;20057;-70
2023/05/12 07:52:11;;;;;;;8.43;5.05;;;15.20;99.90;;;;;;4997156;28;20050;-70
2023/05/12 07:54:38;;;;;;;7.05;4.63;;;15.30;99.90;;;;;;4987586;28;20046;-71
2023/05/12 07:57:06;;;;;;;7.50;4.70;;;15.30;99.90;;;;;;5001152;28;20042;-68
2023/05/12 07:59:33;;;;;;;7.47;4.72;;;15.30;99.90;;;;;;4991910;28;20053;-71
2023/05/12 08:02:00;;;;;;;6.38;4.43;;;15.50;99.90;;;;;;4993260;28;20042;-70
2023/05/12 08:04:28;;;;;;;7.47;4.85;;;15.50;99.90;;;;;;4988909;28;20072;-71
2023/05/12 08:06:55;;;;;;;7.93;4.47;;;15.60;99.90;;;;;;4994992;28;20050;-71
2023/05/12 08:09:23;;;;;;;8.77;5.10;;;15.50;99.90;;;;;;4993766;28;20043;-70
2023/05/12 08:11:51;;;;;;;5.90;4.40;;;15.60;99.90;;;;;;4968818;28;20047;-70
2023/05/12 08:14:18;;;;;;;6.82;4.55;;;15.50;99.90;;;;;;5002341;28;20054;-70
2023/05/12 08:16:46;;;;;;;6.13;4.68;;;15.50;99.90;;;;;;4986321;28;20030;-70
2023/05/12 08:19:14;;;;;;;6.72;4.20;;;15.60;99.90;;;;;;4993135;28;20332;-71
2023/05/12 08:21:41;;;;;;;8.05;5.75;;;15.70;99.90;;;;;;4997628;28;20050;-69
2023/05/12 08:24:09;;;;;;;6.03;4.82;;;15.70;99.90;;;;;;5005442;28;20045;-70
2023/05/12 08:26:36;;;;;;;6.60;4.65;;;15.70;99.90;;;;;;4996314;28;20390;-70
2023/05/12 08:29:05;;;;;;;6.97;3.95;;;15.90;99.90;;;;;;4990114;28;20058;-70
2023/05/12 08:31:32;;;;;;;5.38;4.18;;;16.00;99.90;;;;;;4990895;28;20469;-70
2023/05/12 08:34:00;;;;;;;6.78;4.82;;;16.20;99.90;;;;;;4998421;28;20125;-70
2023/05/12 08:36:37;;;;;;;6.03;4.68;;;16.40;99.90;;;;;;4991553;28;20518;-70
2023/05/12 08:39:05;;;;;;;7.88;4.70;;;16.40;99.90;;;;;;4991024;28;20049;-69
2023/05/12 08:41:54;;;;;;;5.25;4.25;;;16.40;99.90;;;;;;4985032;28;20066;-70
2023/05/12 08:44:23;;;;;;;5.53;4.25;;;16.40;99.90;;;;;;4992029;28;20620;-69
2023/05/12 08:46:53;;;;;;;5.45;4.60;;;16.40;99.90;;;;;;4985480;28;20034;-69
2023/05/12 08:49:25;;;;;;;5.88;4.38;;;16.30;99.90;;;;;;4970510;28;20042;-70
2023/05/12 08:51:55;;;;;;;5.95;4.07;;;16.60;99.90;;;;;;4990195;28;20145;-70
2023/05/12 08:54:27;;;;;;;6.07;4.13;;;16.60;99.90;;;;;;4991704;28;20070;-68
2023/05/12 08:56:55;;;;;;;5.75;4.38;;;16.40;99.90;;;;;;4989680;28;20049;-71
2023/05/12 08:59:25;;;;;;;6.15;4.25;;;16.30;99.90;;;;;;4992696;28;20274;-70
2023/05/12 09:01:54;;;;;;;5.85;4.15;;;16.10;99.90;;;;;;4991099;28;20104;-71
2023/05/12 09:04:22;;;;;;;7.15;4.22;;;16.10;99.90;;;;;;4989735;28;20054;-71
2023/05/12 09:06:50;;;;;;;6.78;4.63;;;16.10;99.90;;;;;;4983803;28;20046;-71
2023/05/12 09:09:22;;;;;;;7.07;4.97;;;16.10;99.90;;;;;;4991930;28;20351;-70
2023/05/12 09:11:56;;;;;;;10.07;6.70;;;16.40;99.90;;;;;;4982732;28;20042;-71
2023/05/12 09:14:24;;;;;;;5.65;4.60;;;16.60;99.90;;;;;;4991754;28;20078;-71
2023/05/12 09:17:02;;;;;;;5.88;4.55;;;16.80;99.90;;;;;;4981518;28;20494;-70
2023/05/12 09:19:30;;;;;;;5.68;4.35;;;17.10;99.90;;;;;;4989446;28;20556;-71
2023/05/12 09:21:59;;;;;;;5.97;4.68;;;17.30;99.90;;;;;;4989315;28;20134;-70
2023/05/12 09:24:35;;;;;;;5.30;4.20;;;17.20;99.90;;;;;;4992247;28;20132;-71
2023/05/12 09:27:03;;;;;;;5.45;4.75;;;16.80;99.90;;;;;;4985694;28;20050;-71
2023/05/12 09:29:32;;;;;;;6.00;4.50;;;16.60;99.90;;;;;;4992256;28;20046;-71
2023/05/12 09:32:11;;;;;;;6.95;4.60;;;16.70;99.90;;;;;;4976036;28;20097;-70
2023/05/12 09:34:39;;;;;;;7.70;4.50;;;17.00;99.90;;;;;;4991054;28;20141;-71
2023/05/12 09:37:07;;;;;;;7.63;4.43;;;17.20;99.90;;;;;;4987003;28;20366;-70
2023/05/12 09:39:35;;;;;;;6.57;4.70;;;17.40;99.90;;;;;;4974323;28;20070;-71
2023/05/12 09:42:09;;;;;;;5.53;3.90;;;17.70;99.90;;;;;;4974883;28;20050;-70
2023/05/12 09:44:38;;;;;;;5.82;3.88;;;18.00;99.90;;;;;;4974297;28;20048;-70
2023/05/12 09:47:07;;;;;;;5.30;4.43;;;18.40;99.90;;;;;;4990694;28;20041;-71
2023/05/12 09:49:34;;;;;;;7.40;4.07;;;18.50;99.90;;;;;;4989782;28;20760;-71
2023/05/12 09:52:03;;;;;;;4.47;3.90;;;18.80;99.90;;;;;;4992252;28;20457;-70
2023/05/12 09:54:32;;;;;;;5.60;4.30;;;18.80;99.90;;;;;;4990621;28;20476;-71
2023/05/12 09:57:02;;;;;;;4.65;3.72;;;19.10;99.90;;;;;;4997282;28;20109;-71
2023/05/12 09:59:32;;;;;;;4.88;3.72;;;19.20;99.90;;;;;;4973809;28;20062;-70
2023/05/12 10:02:01;;;;;;;4.40;3.30;;;19.10;99.90;;;;;;4992871;28;20034;-70
2023/05/12 10:04:44;;;;;;;6.57;3.50;;;19.40;99.90;;;;;;4960260;28;20073;-71
2023/05/12 10:07:13;;;;;;;6.45;3.20;;;19.90;99.90;;;;;;4986196;28;20121;-71
2023/05/12 10:09:43;;;;;;;4.43;3.75;;;19.90;99.90;;;;;;4971617;28;20140;-71
2023/05/12 10:12:10;;;;;;;5.93;4.03;;;20.20;99.90;;;;;;4984594;28;20050;-70
2023/05/12 10:14:39;;;;;;;5.68;3.60;;;20.10;99.90;;;;;;4990760;28;20034;-71
2023/05/12 10:17:08;;;;;;;5.43;4.20;;;20.20;99.90;;;;;;4983987;28;20047;-69
2023/05/12 10:19:37;;;;;;;4.65;3.53;;;20.10;99.90;;;;;;4989992;28;20054;-69
2023/05/12 10:22:08;;;;;;;5.70;3.90;;;20.10;99.90;;;;;;4991577;28;20121;-71
2023/05/12 10:24:37;;;;;;;4.93;3.70;;;19.80;99.90;;;;;;4986478;28;20506;-71
2023/05/12 10:27:05;;;;;;;5.15;3.80;;;19.40;99.90;;;;;;4980349;28;20129;-70
2023/05/12 10:29:33;;;;;;;5.55;3.72;;;19.30;99.90;;;;;;4991448;28;20541;-71
2023/05/12 10:32:01;;;;;;;3.90;3.50;;;18.80;99.90;;;;;;4969412;28;21191;-70
2023/05/12 10:34:32;;;;;;;5.95;3.55;;;18.50;99.90;;;;;;4981881;28;20046;-71
2023/05/12 10:36:59;;;;;;;4.03;3.63;;;18.00;99.90;;;;;;4974035;28;20042;-69
2023/05/12 10:39:28;;;;;;;7.03;4.30;;;17.70;99.90;;;;;;4972137;28;20047;-71
2023/05/12 10:42:08;;;;;;;4.53;3.70;;;17.50;99.90;;;;;;4969549;28;20117;-71
2023/05/12 10:44:48;;;;;;;6.18;4.10;;;17.30;99.90;;;;;;4990362;28;20169;-71
2023/05/12 10:47:16;;;;;;;5.82;3.90;;;17.20;99.90;;;;;;4986203;28;20054;-70
2023/05/12 10:49:43;;;;;;;4.72;3.97;;;17.30;99.90;;;;;;4990013;28;20053;-70
2023/05/12 10:52:12;;;;;;;7.85;3.92;;;17.50;99.90;;;;;;4984455;28;20038;-71
2023/05/12 10:54:43;;;;;;;6.80;4.13;;;17.60;99.90;;;;;;4999722;28;20054;-70
2023/05/12 10:57:15;;;;;;;5.87;3.87;;;17.70;99.90;;;;;;4993777;28;20080;-70
2023/05/12 10:59:50;;;;;;;5.57;4.25;;;17.80;99.90;;;;;;4983607;28;20077;-71
2023/05/12 11:02:24;;;;;;;5.70;3.90;;;18.00;99.90;;;;;;4989398;28;20058;-71
2023/05/12 11:04:57;;;;;;;4.93;3.90;;;18.40;99.90;;;;;;4982251;28;20045;-69
2023/05/12 11:07:31;;;;;;;5.95;4.00;;;18.90;99.90;;;;;;4995185;28;20514;-74
2023/05/12 11:10:01;;;;;;;4.40;3.92;;;19.20;99.90;;;;;;4984683;28;20045;-71
2023/05/12 11:12:34;;;;;;;5.78;4.35;;;19.30;99.90;;;;;;4988050;28;20120;-71
2023/05/12 11:15:03;;;;;;;5.60;4.10;;;19.40;99.90;;;;;;4982223;28;20457;-71
2023/05/12 11:17:32;;;;;;;4.47;3.90;;;18.90;99.90;;;;;;4988307;28;20069;-71
2023/05/12 11:20:00;;;;;;;6.68;4.20;;;19.00;99.90;;;;;;4984638;28;20046;-70
2023/05/12 11:22:28;;;;;;;5.63;3.97;;;18.80;99.90;;;;;;4991422;28;20564;-70
2023/05/12 11:24:55;;;;;;;5.40;4.47;;;18.50;99.90;;;;;;4979807;28;20372;-71
2023/05/12 11:27:23;;;;;;;5.88;5.03;;;18.50;99.90;;;;;;4983861;28;20438;-70
2023/05/12 11:30:03;;;;;;;4.65;3.90;;;18.50;99.90;;;;;;4986190;28;20054;-70
2023/05/12 11:32:31;;;;;;;6.10;4.83;;;18.50;99.90;;;;;;4991352;28;20439;-71
2023/05/12 11:35:09;;;;;;;5.47;4.68;;;18.40;99.90;;;;;;4996286;28;20304;-70
2023/05/12 11:37:41;;;;;;;5.57;4.65;;;18.60;99.90;;;;;;4988191;28;20682;-71
2023/05/12 11:40:15;;;;;;;6.53;4.85;;;18.40;99.90;;;;;;4969391;28;20035;-70
2023/05/12 11:42:47;;;;;;;7.45;5.20;;;18.50;99.90;;;;;;4988997;28;20038;-70
2023/05/12 11:45:20;;;;;;;5.78;4.90;;;18.10;99.90;;;;;;4988723;28;20035;-70
2023/05/12 11:47:48;;;;;;;7.72;5.28;;;18.10;99.90;;;;;;4972329;28;20097;-70
2023/05/12 11:50:21;;;;;;;6.63;5.50;;;17.80;99.90;;;;;;4988435;28;20073;-70
2023/05/12 11:52:50;;;;;;;8.20;5.47;;;17.70;99.90;;;;;;4990082;28;20062;-71
2023/05/12 11:55:24;;;;;;;7.35;5.20;;;17.30;99.90;;;;;;4989221;28;20038;-70
2023/05/12 11:58:02;;;;;;;7.00;5.05;;;17.00;99.90;;;;;;4990372;28;20446;-71
2023/05/12 12:00:34;;;;;;;8.65;5.20;;;17.00;99.90;;;;;;4985121;28;20513;-70
2023/05/12 12:03:10;;;;;;;7.93;5.40;;;17.00;99.90;;;;;;4984769;28;20102;-70
2023/05/12 12:05:44;;;;;;;8.60;6.65;;;17.00;99.90;;;;;;4990428;28;20536;-70
2023/05/12 12:08:13;;;;;;;12.98;5.68;;;17.00;99.90;;;;;;4994054;28;20042;-70
2023/05/12 12:10:45;;;;;;;5.28;4.75;;;17.00;99.90;;;;;;4986814;28;20046;-70
2023/05/12 12:13:21;;;;;;;6.88;4.90;;;17.20;99.90;;;;;;4999166;28;20046;-70
2023/05/12 12:15:49;;;;;;;5.50;4.40;;;17.50;99.90;;;;;;4992877;28;20073;-70
2023/05/12 12:18:20;;;;;;;6.53;4.30;;;17.70;99.90;;;;;;4993126;28;20072;-71
2023/05/12 12:20:47;;;;;;;6.00;4.15;;;17.60;99.90;;;;;;4983163;28;20514;-71
2023/05/12 12:23:15;;;;;;;6.07;4.07;;;17.60;99.90;;;;;;4994793;28;20062;-69
2023/05/12 12:25:43;;;;;;;5.80;3.90;;;17.40;99.90;;;;;;4974678;28;20042;-71
2023/05/12 12:28:10;;;;;;;7.13;3.83;;;17.30;99.90;;;;;;4974432;28;20602;-70
2023/05/12 12:30:37;;;;;;;5.72;4.13;;;17.40;99.90;;;;;;4990688;28;20042;-70
2023/05/12 12:33:05;;;;;;;5.57;4.05;;;17.60;99.90;;;;;;4998022;28;20394;-70
2023/05/12 12:35:32;;;;;;;5.55;3.83;;;17.70;99.90;;;;;;4978925;28;20057;-71
2023/05/12 12:37:59;;;;;;;5.55;3.78;;;17.70;99.90;;;;;;4992297;28;20043;-70
2023/05/12 12:40:27;;;;;;;4.10;3.50;;;17.90;99.90;;;;;;4979792;28;20046;-70
2023/05/12 12:42:55;;;;;;;4.82;3.80;;;18.00;99.90;;;;;;4989611;28;20049;-69
2023/05/12 12:45:22;;;;;;;4.35;3.50;;;17.90;99.90;;;;;;4987106;28;20038;-70
2023/05/12 12:47:53;;;;;;;4.80;4.05;;;18.10;99.90;;;;;;4983574;28;20434;-71
2023/05/12 12:50:21;;;;;;;4.87;3.70;;;17.90;99.90;;;;;;4986236;28;20042;-71